Washington, DC (20040)

6:05 AM EDT on October 01, 2014 (GMT -0400)
Takoma, DC | Change Station
CLOSE
Current Station
Personal Weather Station
Location: Washington, DC
Elevation: 279 ft
Nearby Weather Stations

Elev 279 ft 38.97 °N, 77.01 °W | Updated 57 seconds ago

Overcast
Overcast
62.5 °F
Feels Like 62.5 °F
N
0.0
Wind Variable Wind from WSW
Gusts 0.0 mph

Today
High -- | Low -- °F
--% Chance of Precip.
Yesterday
High -- | Low -- °F
Precip. -- in
7:04 AM 6:50 PM
Waxing Crescent, 46% visible
Pressure 29.97 in
Visibility 10.0 miles
Clouds Mostly Cloudy 600 ft
Mostly Cloudy 1300 ft
Mostly Cloudy 6500 ft
Dew Point 62 °F
Humidity 97%
Rainfall 0.00 in
Snow Depth Not available.
UV 0 out of 12
Pollen 2.90 out of 12
Air Quality Not available.
Flu Activity Not available.
METAR KCGS 010950Z AUTO 00000KT 10SM BKN006 BKN013 BKN065 17/17 A2997 RMK AO1

More Conditions Fewer Conditions

Pressure 29.97 in
Visibility 10.0 miles
Clouds Mostly Cloudy 600 ft
Mostly Cloudy 1300 ft
Mostly Cloudy 6500 ft
Dew Point 62 °F
Humidity 97%
Rainfall 0.00 in
Snow Depth Not available.
UV 0 out of 12
Pollen 2.90 out of 12
Air Quality Not available.
Flu Activity Not available.
METAR KCGS 010950Z AUTO 00000KT 10SM BKN006 BKN013 BKN065 17/17 A2997 RMK AO1

More Conditions Fewer Conditions

10-Day Weather Forecast

Almanac

Astronomy

Oct. 01, 2014 Rise Set
Actual Time 7:04 AM EDT 6:50 PM EDT
Civil Twilight 6:37 AM EDT 7:17 PM EDT
Nautical Twilight 6:06 AM EDT 7:48 PM EDT
Astronomical Twilight 5:35 AM EDT 8:19 PM EDT
Moon 2:00 PM EDT No Moon Set
Length of Visible Light 12h 39m
Length of Day
11h 46m
Tomorrow will be 2m 30s shorter.
Waxing Crescent, 46% of the Moon is Illuminated
Today
Waxing Crescent
Oct 1
First Quarter
Oct 8
Full
Oct 15
Last Quarter
Oct 23
New

Today's Extremes

State Highs State Lows

Community

WunderPhotos

Upload Photos

1,757,904 photos uploaded!

WunderBlogs® & News

Nearby

Snow Depth

Station Depth Elevation
No new snow has been reported.

Earthquake Activity

City Distance Mag. Time & Date
No recent earthquake activity has been reported nearby.
Minimum magnitude displayed is 2.5.

Coastal Water Temperatures

Place Temperature
Washington, DC 71.1 °F
Baltimore, MD 73.9 °F
Solomons Island, MD 72.0 °F

Nearby Weather Stations